• Join FlightAware (Why Join?)
  • Login
  • US Flag 
01:10PM EST


 

Airport Tracker/Info


-or-


 

Live Flight TrackerFlight Track Log ✈ N720EC ✈ 04-Jul-2013 ✈ KBGR - KEPM

Flight Track Log - Related Links

Times and Time Zones

All times are in EDT time to prevent confusion due to time zone crossing. See the N720EC flight status page for this flight to view local times or setup timezone preferences in your user account.

Time Position Orientation Groundspeed Altitude Reporting Facility
EDT Latitude Longitude Course Direction KTS MPH feet Rate Location/Type
09:48AM 44.8575 -68.5244 85° East 176 203 5,400  Level Boston Center
09:49AM 44.8617 -68.4628 85° East 171 197 5,600 -60 Climbing Boston Center
09:50AM 44.8694 -68.3889 82° East 177 204 5,300 -240 Descending Boston Center
09:51AM 44.8756 -68.3211 83° East 182 209 5,200 -60 Descending Boston Center
09:52AM 44.8769 -68.2506 88° East 182 209 5,200  Level Boston Center
09:53AM 44.8800 -68.1625 87° East 182 209 5,200  Level Boston Center
09:54AM 44.8803 -68.1097 90° East 182 209 5,200  Level Boston Center
09:55AM 44.8833 -68.0244 87° East 182 209 5,200  Level Boston Center
09:56AM 44.8847 -67.9539 88° East 182 209 5,200  Level Boston Center
09:57AM 44.8861 -67.8836 88° East 182 209 5,200  Level Boston Center
09:58AM 44.8894 -67.8128 86° East 182 209 5,200  Level Boston Center
09:59AM 44.8908 -67.7425 88° East 182 209 5,200 -120 Level Boston Center
10:00AM 44.8942 -67.6717 86° East 177 204 5,000 -240 Descending Boston Center
10:02AM 44.8908 -67.5897 93° East  Level FlightAware Approximate
10:09AM 44.8931 -67.2424 85° East  Level FlightAware Approximate
10:10AM 44.8958 -67.1933 86° East  Level FlightAware Approximate
10:11AM 44.8985 -67.1441 86° East  Level FlightAware Approximate
10:12AM 44.9000 -67.0949 90° East  Level FlightAware Approximate
10:13AM 44.9000 -67.0456 90° East  Level FlightAware Approximate
10:14AM 44.9000 -67.0000 90° East  Level FlightAware Approximate
10:15AM 44.9101 -67.0127 90° East  Level Estimated
10:16AM 44.9101 -67.0127 90° East  Level Estimated
10:17AM 44.9101 -67.0127 90° East  Level Estimated
10:18AM 44.9101 -67.0127 90° East  Level Estimated
10:19AM 44.9101 -67.0127 90° East  Level Estimated
10:20AM 44.9101 -67.0127 90° East  Level Estimated
10:21AM 44.9101 -67.0127 90° East  Level Estimated
10:22AM 44.9101 -67.0127 90° East  Level Estimated
10:23AM 44.9101 -67.0127 90° East  Level Estimated
10:24AM 44.9101 -67.0127 90° East  Level Estimated
10:25AM 44.9101 -67.0127 90° East  Level Estimated
10:26AM 44.9101 -67.0127 90° East  Level Estimated
10:27AM 44.9101 -67.0127 90° East  Level Estimated
10:28AM 44.9101 -67.0127 90° East  Level Estimated
10:29AM 44.9101 -67.0127 90° East  Level Estimated
10:30AM 44.9101 -67.0127 90° East  Level Estimated
10:31AM 44.9101 -67.0127 90° East  Level Estimated
10:32AM 44.9101 -67.0127 90° East  Level Estimated
10:33AM 44.9101 -67.0127 90° East  Level Estimated
10:34AM 44.9101 -67.0127 90° East  Level Estimated
10:35AM 44.9101 -67.0127 90° East  Level Estimated
10:36AM 44.9101 -67.0127 90° East  Level Estimated
10:37AM 44.9101 -67.0127 90° East  Level Estimated
10:38AM 44.9101 -67.0127 90° East  Level Estimated
10:39AM 44.9101 -67.0127 90° East  Level Estimated
10:40AM 44.9101 -67.0127 90° East  Level Estimated